Time;durP1;ratioP1;P1;durP2;ratioP2;P2;SDS_P1;SDS_P2;PMS_P1;PMS_P2;Temp;Humidity;BMP_temperature;BMP_pressure;BME280_temperature;BME280_humidity;BME280_pressure;Samples;Min_cycle;Max_cycle;Signal;HPM_P1;HPM_P2
2022/05/13 00:01:08;;;;;;;0.30;0.30;;;9.80;99.90;;;;;;5080738;28;20185;-84
2022/05/13 00:03:35;;;;;;;0.20;0.20;;;9.80;99.90;;;;;;5079625;28;20209;-84
2022/05/13 00:06:01;;;;;;;0.30;0.30;;;9.80;99.90;;;;;;5083402;28;20580;-84
2022/05/13 00:08:27;;;;;;;0.20;0.20;;;9.70;99.90;;;;;;5081270;28;20533;-83
2022/05/13 00:10:53;;;;;;;0.20;0.20;;;9.70;99.90;;;;;;5066914;28;20451;-85
2022/05/13 00:13:19;;;;;;;0.20;0.20;;;9.70;99.90;;;;;;5066059;28;20560;-82
2022/05/13 00:15:44;;;;;;;0.20;0.20;;;9.60;99.90;;;;;;5078198;28;20953;-85
2022/05/13 00:18:10;;;;;;;0.20;0.20;;;9.60;99.90;;;;;;5086579;28;20685;-85
2022/05/13 00:20:37;;;;;;;0.30;0.30;;;9.60;99.90;;;;;;5068251;28;20228;-83
2022/05/13 00:23:02;;;;;;;0.20;0.20;;;9.50;99.90;;;;;;5083318;28;20450;-83
2022/05/13 00:25:31;;;;;;;0.30;0.30;;;9.50;99.90;;;;;;5074344;28;20447;-86
2022/05/13 00:27:59;;;;;;;0.40;0.40;;;9.60;99.90;;;;;;5081646;28;20438;-85
2022/05/13 00:30:27;;;;;;;0.40;0.40;;;9.50;99.90;;;;;;5076310;28;20455;-84
2022/05/13 00:32:52;;;;;;;0.20;0.20;;;9.50;99.90;;;;;;5068072;28;20485;-83
2022/05/13 00:35:20;;;;;;;0.20;0.20;;;9.50;99.90;;;;;;5086555;28;20549;-84
2022/05/13 00:37:46;;;;;;;0.20;0.20;;;9.40;99.90;;;;;;5065484;28;20184;-84
2022/05/13 00:40:13;;;;;;;0.30;0.30;;;9.60;99.90;;;;;;5066620;28;20495;-84
2022/05/13 00:42:39;;;;;;;0.20;0.20;;;9.50;99.90;;;;;;5065427;28;20439;-84
2022/05/13 00:45:06;;;;;;;0.37;0.37;;;9.50;99.90;;;;;;5080064;28;20450;-81
2022/05/13 00:47:31;;;;;;;0.40;0.40;;;9.50;99.90;;;;;;5086143;28;20450;-84
2022/05/13 00:49:59;;;;;;;0.30;0.30;;;9.40;99.90;;;;;;5085800;28;20447;-85
2022/05/13 00:52:27;;;;;;;0.90;0.90;;;9.40;99.90;;;;;;5082712;28;20346;-84
2022/05/13 00:54:53;;;;;;;0.40;0.40;;;9.50;99.90;;;;;;5082785;28;20443;-84
2022/05/13 00:57:21;;;;;;;0.63;0.63;;;9.50;99.90;;;;;;5081142;28;20451;-83
2022/05/13 00:59:48;;;;;;;0.50;0.50;;;9.50;99.90;;;;;;5084343;28;20486;-84
2022/05/13 01:02:15;;;;;;;0.30;0.30;;;9.60;99.90;;;;;;5086393;28;20431;-85
2022/05/13 01:04:41;;;;;;;0.20;0.20;;;9.50;99.90;;;;;;5088481;28;20419;-82
2022/05/13 01:07:15;;;;;;;0.20;0.20;;;9.60;99.90;;;;;;5080179;28;20435;-85
2022/05/13 01:09:47;;;;;;;0.20;0.20;;;9.70;99.90;;;;;;5059118;28;20447;-84
2022/05/13 01:12:17;;;;;;;0.30;0.30;;;9.70;99.90;;;;;;5066521;28;20439;-84
2022/05/13 01:14:53;;;;;;;0.40;0.40;;;9.70;99.90;;;;;;5087395;28;20439;-84
2022/05/13 01:20:19;;;;;;;0.30;0.30;;;9.60;99.90;;;;;;5073839;28;20563;-85
2022/05/13 01:22:48;;;;;;;0.30;0.30;;;9.70;99.90;;;;;;5076478;28;20434;-84
2022/05/13 01:25:17;;;;;;;0.30;0.30;;;9.60;99.90;;;;;;5080315;28;20435;-84
2022/05/13 01:27:45;;;;;;;0.30;0.30;;;9.70;99.90;;;;;;5084768;28;20451;-84
2022/05/13 01:30:14;;;;;;;0.20;0.20;;;9.70;99.90;;;;;;5085828;28;20909;-84
2022/05/13 01:32:40;;;;;;;0.30;0.30;;;9.60;99.90;;;;;;5080361;28;20953;-84
2022/05/13 01:35:06;;;;;;;0.30;0.30;;;9.70;99.90;;;;;;5087258;28;20443;-84
2022/05/13 01:37:33;;;;;;;0.20;0.20;;;9.60;99.90;;;;;;5079054;28;20202;-84
2022/05/13 01:39:59;;;;;;;0.30;0.30;;;9.60;99.90;;;;;;5088434;28;20474;-84
2022/05/13 01:42:24;;;;;;;0.20;0.20;;;9.60;99.90;;;;;;5081485;28;20902;-84
2022/05/13 01:44:50;;;;;;;0.20;0.20;;;9.60;99.90;;;;;;5083273;28;20879;-84
2022/05/13 01:47:15;;;;;;;0.30;0.30;;;9.60;99.90;;;;;;5092122;28;20181;-84
2022/05/13 01:49:41;;;;;;;0.30;0.30;;;9.60;99.90;;;;;;5072285;28;20185;-87
2022/05/13 01:52:06;;;;;;;0.30;0.30;;;9.60;99.90;;;;;;5067968;28;20307;-84
2022/05/13 01:54:32;;;;;;;0.20;0.20;;;9.60;99.90;;;;;;5088222;28;20197;-85
2022/05/13 01:56:57;;;;;;;0.20;0.20;;;9.60;99.90;;;;;;5069356;28;20185;-85
2022/05/13 01:59:23;;;;;;;0.20;0.20;;;9.60;99.90;;;;;;5068344;28;20262;-84
2022/05/13 02:01:48;;;;;;;0.20;0.20;;;9.70;99.90;;;;;;5068243;28;20185;-85
2022/05/13 02:04:14;;;;;;;0.20;0.20;;;9.70;99.90;;;;;;5090323;28;20517;-85
2022/05/13 02:06:39;;;;;;;0.20;0.20;;;9.70;99.90;;;;;;5080840;28;20224;-83
2022/05/13 02:09:05;;;;;;;0.20;0.20;;;9.60;99.90;;;;;;5089096;28;20564;-84
2022/05/13 02:11:36;;;;;;;0.20;0.20;;;9.80;99.90;;;;;;5080245;28;20270;-84
2022/05/13 02:14:04;;;;;;;0.20;0.20;;;9.70;99.90;;;;;;5087087;28;20178;-85
2022/05/13 02:16:29;;;;;;;0.20;0.20;;;9.70;99.90;;;;;;5085065;28;21016;-84
2022/05/13 02:18:55;;;;;;;0.20;0.20;;;9.70;99.90;;;;;;5081527;28;20463;-84
2022/05/13 02:21:21;;;;;;;0.20;0.20;;;9.70;99.90;;;;;;5087091;28;20295;-84
2022/05/13 02:23:49;;;;;;;0.20;0.20;;;9.70;99.90;;;;;;5084238;28;20274;-85
2022/05/13 02:26:16;;;;;;;0.20;0.20;;;9.60;99.90;;;;;;5085417;28;20201;-84
2022/05/13 02:28:42;;;;;;;0.20;0.20;;;9.60;99.90;;;;;;5088817;28;20442;-82
2022/05/13 02:31:08;;;;;;;0.20;0.20;;;9.60;99.90;;;;;;5089705;28;20443;-83
2022/05/13 02:33:34;;;;;;;0.20;0.20;;;9.60;99.90;;;;;;5088910;28;20443;-85
2022/05/13 02:36:00;;;;;;;0.20;0.20;;;9.60;99.90;;;;;;5090236;28;20240;-85
2022/05/13 02:38:27;;;;;;;0.20;0.20;;;9.60;99.90;;;;;;5068578;28;20452;-84
2022/05/13 02:43:37;;;;;;;0.20;0.20;;;9.60;99.90;;;;;;5089086;28;20952;-85
2022/05/13 02:46:03;;;;;;;0.20;0.20;;;9.70;99.90;;;;;;5089692;28;20466;-83
2022/05/13 02:48:28;;;;;;;0.20;0.20;;;9.70;99.90;;;;;;5089567;28;20439;-83
2022/05/13 02:50:54;;;;;;;0.20;0.20;;;9.60;99.90;;;;;;5089264;28;20224;-85
2022/05/13 02:53:20;;;;;;;0.20;0.20;;;9.60;99.90;;;;;;5091052;28;20197;-84
2022/05/13 02:55:46;;;;;;;0.30;0.30;;;9.60;99.90;;;;;;5085796;28;20680;-82
2022/05/13 02:58:11;;;;;;;0.30;0.30;;;9.60;99.90;;;;;;5087364;28;20453;-81
2022/05/13 03:00:38;;;;;;;0.20;0.20;;;9.70;99.90;;;;;;5070973;28;20213;-84
2022/05/13 03:03:05;;;;;;;0.30;0.30;;;9.70;99.90;;;;;;5069103;28;20743;-85
2022/05/13 03:05:32;;;;;;;0.20;0.20;;;9.70;99.90;;;;;;5089358;28;20451;-82
2022/05/13 03:08:01;;;;;;;0.20;0.20;;;9.70;99.90;;;;;;5086572;28;20860;-84
2022/05/13 03:10:29;;;;;;;0.20;0.20;;;9.70;99.90;;;;;;5088010;28;20457;-82
2022/05/13 03:12:56;;;;;;;0.30;0.30;;;9.70;99.90;;;;;;5071185;28;20455;-84
2022/05/13 03:15:21;;;;;;;0.20;0.20;;;9.70;99.90;;;;;;5085695;28;20549;-84
2022/05/13 03:17:47;;;;;;;0.20;0.20;;;9.70;99.90;;;;;;5083739;28;20519;-84
2022/05/13 03:20:17;;;;;;;0.20;0.20;;;9.70;99.90;;;;;;5084358;28;20430;-85
2022/05/13 03:22:43;;;;;;;0.20;0.20;;;9.70;99.90;;;;;;5071478;28;20189;-85
2022/05/13 03:25:09;;;;;;;0.40;0.40;;;9.70;99.90;;;;;;5089221;28;21080;-86
2022/05/13 03:27:34;;;;;;;0.30;0.30;;;9.70;99.90;;;;;;5064203;28;20469;-84
2022/05/13 03:30:00;;;;;;;0.40;0.40;;;9.70;99.90;;;;;;5067844;28;20215;-86
2022/05/13 03:32:25;;;;;;;0.40;0.40;;;9.80;99.90;;;;;;5067808;28;20186;-83
2022/05/13 03:34:51;;;;;;;0.30;0.30;;;9.80;99.90;;;;;;5087380;28;20197;-80
2022/05/13 03:37:16;;;;;;;0.40;0.40;;;9.80;99.90;;;;;;5065786;28;20264;-85
2022/05/13 03:39:42;;;;;;;0.37;0.37;;;9.70;99.90;;;;;;5073953;28;20647;-86
2022/05/13 03:42:09;;;;;;;0.20;0.20;;;9.70;99.90;;;;;;5071530;28;20280;-85
2022/05/13 03:44:36;;;;;;;0.30;0.30;;;9.70;99.90;;;;;;5070217;28;20560;-85
2022/05/13 03:47:03;;;;;;;0.30;0.30;;;9.70;99.90;;;;;;5077981;28;20489;-85
2022/05/13 03:49:28;;;;;;;0.20;0.20;;;9.70;99.90;;;;;;5087397;28;20443;-86
2022/05/13 03:51:54;;;;;;;0.20;0.20;;;9.70;99.90;;;;;;5069498;28;20578;-85
2022/05/13 03:54:19;;;;;;;0.30;0.30;;;9.80;99.90;;;;;;5064128;28;20219;-80
2022/05/13 03:56:45;;;;;;;0.20;0.20;;;9.80;99.90;;;;;;5100637;28;20185;-84
2022/05/13 03:59:10;;;;;;;0.20;0.20;;;9.70;99.90;;;;;;5085979;28;20267;-83
2022/05/13 04:01:36;;;;;;;0.20;0.20;;;9.70;99.90;;;;;;5085956;28;20288;-82
2022/05/13 04:04:01;;;;;;;0.20;0.20;;;9.80;99.90;;;;;;5080190;28;20188;-82
2022/05/13 04:09:11;;;;;;;0.30;0.30;;;9.80;99.90;;;;;;5087456;28;20263;-85
2022/05/13 04:11:39;;;;;;;0.20;0.20;;;9.80;99.90;;;;;;5087994;28;20918;-84
2022/05/13 04:16:54;;;;;;;0.20;0.20;;;9.90;99.90;;;;;;5087337;28;20433;-86
2022/05/13 04:19:21;;;;;;;0.20;0.20;;;9.90;99.90;;;;;;5071449;28;20586;-87
2022/05/13 04:21:47;;;;;;;0.20;0.20;;;9.90;99.90;;;;;;5088056;28;20453;-85
2022/05/13 04:24:17;;;;;;;0.20;0.20;;;9.90;99.90;;;;;;5088418;28;20489;-86
2022/05/13 04:26:43;;;;;;;0.20;0.20;;;9.90;99.90;;;;;;5089306;28;20475;-85
2022/05/13 04:29:08;;;;;;;0.20;0.20;;;9.90;99.90;;;;;;5084490;28;20500;-84
2022/05/13 04:31:38;;;;;;;0.20;0.20;;;9.90;99.90;;;;;;5081763;28;20491;-87
2022/05/13 04:34:05;;;;;;;0.20;0.20;;;9.90;99.90;;;;;;5070540;28;20181;-86
2022/05/13 04:36:31;;;;;;;0.20;0.20;;;9.90;99.90;;;;;;5090199;28;20430;-86
2022/05/13 04:38:57;;;;;;;0.20;0.20;;;10.00;99.90;;;;;;5085670;28;20440;-84
2022/05/13 04:44:09;;;;;;;0.20;0.20;;;10.00;99.90;;;;;;5082732;28;20211;-85
2022/05/13 04:46:36;;;;;;;0.20;0.20;;;10.10;99.90;;;;;;5087598;28;20848;-85
2022/05/13 04:49:02;;;;;;;0.20;0.20;;;10.10;99.90;;;;;;5084634;28;20451;-86
2022/05/13 04:51:28;;;;;;;0.20;0.20;;;10.10;99.90;;;;;;5078990;28;20475;-82
2022/05/13 04:53:55;;;;;;;0.20;0.20;;;10.10;99.90;;;;;;5086614;28;20447;-85
2022/05/13 04:56:22;;;;;;;0.20;0.20;;;10.20;99.90;;;;;;5086412;28;20501;-83
2022/05/13 04:58:48;;;;;;;0.20;0.20;;;10.20;99.90;;;;;;5085609;28;20447;-86
2022/05/13 05:01:15;;;;;;;0.10;0.10;;;10.20;99.90;;;;;;5082740;28;20446;-84
2022/05/13 05:03:41;;;;;;;0.20;0.20;;;10.20;99.90;;;;;;5079116;28;20439;-85
2022/05/13 05:06:07;;;;;;;0.20;0.20;;;10.30;99.90;;;;;;5085193;28;20454;-83
2022/05/13 05:08:33;;;;;;;0.20;0.20;;;10.30;99.90;;;;;;5089094;28;20439;-85
2022/05/13 05:11:00;;;;;;;0.20;0.20;;;10.30;99.90;;;;;;5087403;28;20446;-85
2022/05/13 05:13:28;;;;;;;0.20;0.20;;;10.30;99.90;;;;;;5089469;28;20434;-85
2022/05/13 05:15:54;;;;;;;0.20;0.20;;;10.30;99.90;;;;;;5063101;28;20865;-86
2022/05/13 05:18:19;;;;;;;0.20;0.20;;;10.40;99.90;;;;;;5084896;28;20511;-85
2022/05/13 05:20:46;;;;;;;0.30;0.30;;;10.40;99.90;;;;;;5070382;28;20478;-86
2022/05/13 05:23:18;;;;;;;0.30;0.30;;;10.40;99.90;;;;;;5074770;28;20185;-84
2022/05/13 05:25:44;;;;;;;0.20;0.20;;;10.40;99.90;;;;;;5088980;28;20492;-83
2022/05/13 05:28:09;;;;;;;0.20;0.20;;;10.40;99.90;;;;;;5076449;28;20439;-83
2022/05/13 05:30:35;;;;;;;0.50;0.50;;;10.40;99.90;;;;;;5088139;28;20468;-83
2022/05/13 05:33:00;;;;;;;0.60;0.60;;;10.40;99.90;;;;;;5088868;28;20193;-84
2022/05/13 05:35:27;;;;;;;0.50;0.50;;;10.50;99.90;;;;;;5065886;28;20188;-83
2022/05/13 05:37:52;;;;;;;0.27;0.27;;;10.50;99.90;;;;;;5093990;28;20200;-84
2022/05/13 05:40:18;;;;;;;0.20;0.20;;;10.50;99.90;;;;;;5091065;28;20952;-84
2022/05/13 05:42:44;;;;;;;0.20;0.20;;;10.50;99.90;;;;;;5085569;28;20189;-84
2022/05/13 05:45:12;;;;;;;0.27;0.27;;;10.50;99.90;;;;;;5091131;28;20272;-84
2022/05/13 05:47:37;;;;;;;0.20;0.20;;;10.50;99.90;;;;;;5090568;28;20607;-82
2022/05/13 05:50:06;;;;;;;0.20;0.20;;;10.60;99.90;;;;;;5075745;28;20983;-80
2022/05/13 05:52:32;;;;;;;0.20;0.20;;;10.60;99.90;;;;;;5084773;28;20594;-79
2022/05/13 05:57:56;;;;;;;0.20;0.20;;;10.80;99.90;;;;;;5086457;28;20195;-81
2022/05/13 06:00:21;;;;;;;0.20;0.20;;;10.90;99.90;;;;;;5085951;28;20490;-82
2022/05/13 06:02:47;;;;;;;0.20;0.20;;;10.90;99.90;;;;;;5087287;28;20488;-82
2022/05/13 06:05:12;;;;;;;0.20;0.20;;;11.00;99.90;;;;;;5089707;28;20631;-82
2022/05/13 06:07:38;;;;;;;0.20;0.20;;;11.00;99.90;;;;;;5092687;28;20181;-82
2022/05/13 06:10:03;;;;;;;0.20;0.20;;;11.00;99.90;;;;;;5089263;28;20189;-81
2022/05/13 06:12:29;;;;;;;0.20;0.20;;;11.00;99.90;;;;;;5092498;28;20260;-81
2022/05/13 06:14:54;;;;;;;0.20;0.20;;;11.00;99.90;;;;;;5088140;28;20216;-82
2022/05/13 06:17:20;;;;;;;0.20;0.20;;;11.00;99.90;;;;;;5090004;28;20193;-81
2022/05/13 06:19:46;;;;;;;0.20;0.20;;;11.00;99.90;;;;;;5087235;28;20380;-82
2022/05/13 06:22:11;;;;;;;0.20;0.20;;;11.00;99.90;;;;;;5090522;28;20978;-81
2022/05/13 06:24:37;;;;;;;0.20;0.20;;;11.00;99.90;;;;;;5091710;28;20216;-82
2022/05/13 06:27:03;;;;;;;0.20;0.20;;;11.00;99.90;;;;;;5089749;28;20201;-82
2022/05/13 06:29:29;;;;;;;0.20;0.20;;;11.00;99.90;;;;;;5088765;28;20518;-83
2022/05/13 06:31:55;;;;;;;0.20;0.20;;;11.00;99.90;;;;;;5087582;28;20507;-82
2022/05/13 06:34:22;;;;;;;0.20;0.20;;;11.10;99.90;;;;;;5091069;28;20559;-82
2022/05/13 06:36:47;;;;;;;0.20;0.20;;;11.10;99.90;;;;;;5084426;28;20230;-82
2022/05/13 06:39:13;;;;;;;0.20;0.20;;;11.10;99.90;;;;;;5086719;28;20880;-81
2022/05/13 06:41:40;;;;;;;0.10;0.10;;;11.20;99.90;;;;;;5069405;28;20205;-82
2022/05/13 06:44:06;;;;;;;0.10;0.10;;;11.20;99.90;;;;;;5083038;28;20185;-80
2022/05/13 06:46:35;;;;;;;0.20;0.20;;;11.20;99.90;;;;;;5084869;28;20439;-80
2022/05/13 06:49:03;;;;;;;0.20;0.20;;;11.20;99.90;;;;;;5081433;28;20427;-80
2022/05/13 06:51:30;;;;;;;0.17;0.17;;;11.30;99.90;;;;;;5089663;28;20463;-81
2022/05/13 06:53:55;;;;;;;0.20;0.20;;;11.20;99.90;;;;;;5081566;28;20443;-83
2022/05/13 06:56:21;;;;;;;0.20;0.20;;;11.20;99.90;;;;;;5086592;28;20856;-82
2022/05/13 06:58:46;;;;;;;0.20;0.20;;;11.20;99.90;;;;;;5068886;28;21160;-83
2022/05/13 07:01:12;;;;;;;0.20;0.20;;;11.20;99.90;;;;;;5086451;28;20280;-83
2022/05/13 07:03:37;;;;;;;0.20;0.20;;;11.30;99.90;;;;;;5088192;28;20235;-81
2022/05/13 07:06:04;;;;;;;0.20;0.20;;;11.30;99.90;;;;;;5085374;28;20234;-80
2022/05/13 07:08:31;;;;;;;0.20;0.20;;;11.30;99.90;;;;;;5080756;28;22103;-81
2022/05/13 07:10:57;;;;;;;0.20;0.20;;;11.30;99.90;;;;;;5089425;28;20451;-81
2022/05/13 07:13:23;;;;;;;0.20;0.20;;;11.40;99.90;;;;;;5068813;28;21011;-81
2022/05/13 07:15:48;;;;;;;0.20;0.20;;;11.40;99.90;;;;;;5084750;28;20455;-82
2022/05/13 07:18:14;;;;;;;0.20;0.20;;;11.60;99.90;;;;;;5069939;28;20246;-82
2022/05/13 07:20:40;;;;;;;0.20;0.20;;;11.60;99.90;;;;;;5084665;28;20403;-83
2022/05/13 07:23:05;;;;;;;0.10;0.10;;;11.60;99.90;;;;;;5066605;28;20197;-81
2022/05/13 07:25:31;;;;;;;0.10;0.10;;;11.50;99.90;;;;;;5086729;28;20454;-82
2022/05/13 07:27:57;;;;;;;0.20;0.20;;;11.50;99.90;;;;;;5088166;28;20192;-83
2022/05/13 07:30:23;;;;;;;0.30;0.30;;;11.50;99.90;;;;;;5086732;28;21001;-83
2022/05/13 07:32:49;;;;;;;0.13;0.13;;;11.50;99.90;;;;;;5086868;28;20654;-82
2022/05/13 07:35:15;;;;;;;0.20;0.20;;;11.50;99.90;;;;;;5087664;28;20566;-81
2022/05/13 07:37:40;;;;;;;0.20;0.20;;;11.40;99.90;;;;;;5086009;28;20224;-83
2022/05/13 07:42:51;;;;;;;0.20;0.20;;;11.40;99.90;;;;;;5078081;28;20261;-84
2022/05/13 07:45:17;;;;;;;0.20;0.20;;;11.40;99.90;;;;;;5077040;28;20443;-81
2022/05/13 07:47:42;;;;;;;0.20;0.20;;;11.40;99.90;;;;;;5087147;28;20189;-85
2022/05/13 07:50:10;;;;;;;0.20;0.20;;;11.40;99.90;;;;;;5087026;28;20177;-83
2022/05/13 07:52:36;;;;;;;0.40;0.40;;;11.40;99.90;;;;;;5082165;28;20231;-80
2022/05/13 07:55:03;;;;;;;0.23;0.23;;;11.50;99.90;;;;;;5087113;28;20453;-82
2022/05/13 07:57:28;;;;;;;0.30;0.30;;;11.50;99.90;;;;;;5084783;28;21010;-81
2022/05/13 08:02:38;;;;;;;0.27;0.27;;;11.60;99.90;;;;;;5081861;28;20246;-81
2022/05/13 08:05:04;;;;;;;0.20;0.20;;;11.60;99.90;;;;;;5086407;28;20938;-82
2022/05/13 08:07:30;;;;;;;0.20;0.20;;;11.70;99.90;;;;;;5088158;28;20189;-83
2022/05/13 08:09:55;;;;;;;0.30;0.30;;;11.70;99.90;;;;;;5089472;28;20446;-81
2022/05/13 08:12:21;;;;;;;0.20;0.20;;;11.70;99.90;;;;;;5083257;28;22105;-83
2022/05/13 08:14:47;;;;;;;0.20;0.20;;;11.70;99.90;;;;;;5088136;28;20183;-82
2022/05/13 08:17:12;;;;;;;0.20;0.20;;;11.90;99.90;;;;;;5088685;28;20173;-84
2022/05/13 08:19:39;;;;;;;0.20;0.20;;;12.00;99.90;;;;;;5086202;28;20229;-80
2022/05/13 08:22:05;;;;;;;0.20;0.20;;;12.20;99.90;;;;;;5072155;28;20464;-83
2022/05/13 08:24:31;;;;;;;0.20;0.20;;;12.50;99.90;;;;;;5086876;28;20250;-84
2022/05/13 08:26:56;;;;;;;0.30;0.30;;;12.70;99.90;;;;;;5084400;28;20435;-80
2022/05/13 08:29:22;;;;;;;0.10;0.10;;;12.80;99.90;;;;;;5088109;28;20519;-80
2022/05/13 08:31:48;;;;;;;0.20;0.20;;;12.50;99.90;;;;;;5083572;28;20189;-83
2022/05/13 08:34:14;;;;;;;0.10;0.10;;;12.40;99.90;;;;;;5085731;28;20185;-84
2022/05/13 08:36:40;;;;;;;0.20;0.20;;;12.20;99.90;;;;;;5089554;28;20177;-84
2022/05/13 08:39:06;;;;;;;0.10;0.10;;;12.10;99.90;;;;;;5090250;28;20427;-80
2022/05/13 08:41:44;;;;;;;0.20;0.20;;;12.10;99.90;;;;;;5086453;28;20181;-80
2022/05/13 08:44:14;;;;;;;0.10;0.10;;;12.10;99.90;;;;;;5087881;28;20188;-81
2022/05/13 08:46:55;;;;;;;0.10;0.10;;;12.10;99.90;;;;;;5089147;28;20439;-83
2022/05/13 08:49:51;;;;;;;0.20;0.20;;;12.30;99.90;;;;;;5088756;28;21122;-80
2022/05/13 08:53:08;;;;;;;0.10;0.10;;;12.80;99.90;;;;;;5085040;28;20489;-80
2022/05/13 08:55:49;;;;;;;0.10;0.10;;;13.10;99.90;;;;;;5027171;28;21265;-80
2022/05/13 08:58:29;;;;;;;0.10;0.10;;;13.20;99.90;;;;;;5084198;28;20568;-80
2022/05/13 09:00:57;;;;;;;0.10;0.10;;;13.30;99.90;;;;;;5083719;28;20595;-81
2022/05/13 09:03:39;;;;;;;0.20;0.20;;;13.60;99.90;;;;;;5085082;28;20848;-82
2022/05/13 09:06:13;;;;;;;0.10;0.10;;;14.00;99.90;;;;;;5087380;28;20478;-83
2022/05/13 09:08:39;;;;;;;0.30;0.30;;;14.20;99.90;;;;;;5055948;28;20432;-82
2022/05/13 09:11:34;;;;;;;0.20;0.20;;;14.40;99.90;;;;;;5073306;28;20447;-82
2022/05/13 09:14:14;;;;;;;0.10;0.10;;;14.00;99.90;;;;;;5057603;28;20185;-81
2022/05/13 09:16:47;;;;;;;0.20;0.20;;;14.20;99.90;;;;;;5086839;28;20442;-83
2022/05/13 09:19:32;;;;;;;0.10;0.10;;;14.80;99.90;;;;;;5085166;28;20462;-83
2022/05/13 09:21:57;;;;;;;0.10;0.10;;;15.40;99.90;;;;;;5084296;28;20466;-80
2022/05/13 09:24:23;;;;;;;0.10;0.10;;;15.40;99.90;;;;;;5082723;28;20797;-81
2022/05/13 09:26:49;;;;;;;0.10;0.10;;;14.90;99.90;;;;;;5065500;28;20235;-86
2022/05/13 09:29:17;;;;;;;0.20;0.20;;;15.00;99.90;;;;;;5063049;28;20262;-82
2022/05/13 09:32:04;;;;;;;0.20;0.20;;;15.40;99.90;;;;;;5088456;28;20793;-85
2022/05/13 09:34:34;;;;;;;0.10;0.10;;;15.50;99.90;;;;;;5066284;28;20813;-85
2022/05/13 09:37:23;;;;;;;0.20;0.20;;;15.60;99.90;;;;;;5079473;28;20534;-83
2022/05/13 09:40:03;;;;;;;0.30;0.30;;;15.60;99.90;;;;;;5078730;28;20481;-82
2022/05/13 09:42:41;;;;;;;0.10;0.10;;;15.40;99.90;;;;;;5059087;28;20517;-82
2022/05/13 09:45:30;;;;;;;0.30;0.30;;;15.10;99.90;;;;;;5062378;28;20458;-87
2022/05/13 09:48:19;;;;;;;0.10;0.10;;;15.10;99.90;;;;;;5069300;28;20958;-83
2022/05/13 09:50:55;;;;;;;0.20;0.20;;;14.90;99.90;;;;;;5088891;28;20806;-84
2022/05/13 09:53:20;;;;;;;0.30;0.30;;;14.60;99.90;;;;;;5085613;28;20462;-83
2022/05/13 09:56:07;;;;;;;0.20;0.20;;;14.50;99.90;;;;;;5082252;28;20519;-84
2022/05/13 09:58:50;;;;;;;0.30;0.30;;;14.30;99.90;;;;;;5084675;28;20193;-86
2022/05/13 10:01:22;;;;;;;0.20;0.20;;;14.10;99.90;;;;;;5086466;28;20494;-84
2022/05/13 10:04:08;;;;;;;0.30;0.30;;;13.90;99.90;;;;;;5079252;28;20446;-85
2022/05/13 10:06:35;;;;;;;0.20;0.20;;;13.90;99.90;;;;;;5067076;28;20530;-85
2022/05/13 10:14:41;;;;;;;0.20;0.20;;;14.30;99.90;;;;;;5090695;28;20439;-86
2022/05/13 10:17:10;;;;;;;0.20;0.20;;;14.30;99.90;;;;;;5090123;28;20447;-88
2022/05/13 10:19:50;;;;;;;0.20;0.20;;;14.50;99.90;;;;;;5069924;28;20479;-85
2022/05/13 10:22:34;;;;;;;0.10;0.10;;;14.50;99.90;;;;;;5088814;28;20439;-83
2022/05/13 10:25:10;;;;;;;0.30;0.30;;;14.50;99.90;;;;;;5075066;28;20459;-83
2022/05/13 10:27:52;;;;;;;0.20;0.20;;;14.60;99.90;;;;;;5064806;28;20452;-85
2022/05/13 10:30:31;;;;;;;0.20;0.20;;;14.90;99.90;;;;;;5090192;28;20443;-81
2022/05/13 10:33:02;;;;;;;0.30;0.30;;;15.10;99.90;;;;;;5084676;28;20439;-81
2022/05/13 10:35:52;;;;;;;0.20;0.20;;;15.20;99.90;;;;;;5091524;28;20864;-81
2022/05/13 10:38:43;;;;;;;0.10;0.10;;;15.00;99.90;;;;;;5086361;28;20963;-81
2022/05/13 10:41:30;;;;;;;0.10;0.10;;;14.80;99.90;;;;;;5088391;28;20577;-79
2022/05/13 10:44:08;;;;;;;0.10;0.10;;;14.80;99.90;;;;;;5088405;28;20474;-82
2022/05/13 10:46:45;;;;;;;0.10;0.10;;;14.70;99.90;;;;;;5067458;28;20447;-80
2022/05/13 10:49:13;;;;;;;0.10;0.10;;;15.10;99.90;;;;;;5069941;28;22333;-84
2022/05/13 10:51:47;;;;;;;0.10;0.10;;;15.80;99.90;;;;;;5081466;28;20994;-85
2022/05/13 10:54:54;;;;;;;0.10;0.10;;;16.40;99.90;;;;;;5079201;28;20435;-84
2022/05/13 10:57:33;;;;;;;0.10;0.10;;;16.10;99.90;;;;;;5080918;28;20589;-80
2022/05/13 11:00:14;;;;;;;0.10;0.10;;;15.80;99.90;;;;;;5083758;28;20477;-79
2022/05/13 11:02:54;;;;;;;0.10;0.10;;;15.60;99.90;;;;;;5090210;28;20446;-81
2022/05/13 11:05:38;;;;;;;0.10;0.10;;;16.00;99.90;;;;;;5086589;28;20451;-81
2022/05/13 11:08:17;;;;;;;0.10;0.10;;;16.20;99.90;;;;;;5087295;28;20847;-82
2022/05/13 11:11:14;;;;;;;0.10;0.10;;;17.10;99.90;;;;;;5086515;28;20443;-82
2022/05/13 11:13:59;;;;;;;0.10;0.10;;;17.90;99.90;;;;;;5088672;28;20442;-86
2022/05/13 11:16:49;;;;;;;0.10;0.10;;;18.80;99.90;;;;;;5085122;28;20521;-84
2022/05/13 11:19:28;;;;;;;0.10;0.10;;;19.20;99.90;;;;;;5089279;28;20482;-86
2022/05/13 11:22:18;;;;;;;0.10;0.10;;;18.00;99.90;;;;;;5087851;28;20447;-86
2022/05/13 11:27:56;;;;;;;0.10;0.10;;;16.00;99.90;;;;;;5086036;28;21358;-82
2022/05/13 11:30:42;;;;;;;0.10;0.10;;;16.60;99.90;;;;;;5082272;28;20957;-82
2022/05/13 11:33:25;;;;;;;0.10;0.10;;;16.70;99.90;;;;;;5077004;28;20542;-81
2022/05/13 11:36:05;;;;;;;0.10;0.10;;;16.20;99.90;;;;;;5077803;28;20958;-82
2022/05/13 11:38:56;;;;;;;0.10;0.10;;;16.30;99.90;;;;;;5087054;28;20435;-81
2022/05/13 11:41:23;;;;;;;0.10;0.10;;;16.30;99.90;;;;;;5082665;28;20540;-78
2022/05/13 11:44:00;;;;;;;0.10;0.10;;;16.00;99.90;;;;;;5084685;28;20459;-81
2022/05/13 11:46:56;;;;;;;0.10;0.10;;;15.80;99.90;;;;;;5067768;28;20504;-80
2022/05/13 11:49:26;;;;;;;0.10;0.10;;;15.70;99.90;;;;;;5089352;28;20453;-84
2022/05/13 11:51:52;;;;;;;0.10;0.10;;;16.40;99.90;;;;;;5067977;28;20998;-83
2022/05/13 11:54:27;;;;;;;0.10;0.10;;;16.80;99.90;;;;;;5086340;28;20476;-82
2022/05/13 11:57:23;;;;;;;0.10;0.10;;;16.50;99.90;;;;;;5086258;28;20438;-82
2022/05/13 11:59:54;;;;;;;0.10;0.10;;;15.70;99.90;;;;;;5087790;28;20541;-81
2022/05/13 12:03:01;;;;;;;0.10;0.10;;;15.70;99.90;;;;;;5086100;28;20423;-81
2022/05/13 12:05:29;;;;;;;0.10;0.10;;;15.50;99.90;;;;;;4986212;28;20462;-82
2022/05/13 12:08:17;;;;;;;0.10;0.10;;;15.40;99.90;;;;;;5063664;28;21031;-84
2022/05/13 12:11:10;;;;;;;0.10;0.10;;;15.40;99.90;;;;;;5079610;28;20439;-86
2022/05/13 12:13:47;;;;;;;0.10;0.10;;;15.50;99.90;;;;;;5087655;28;20439;-83
2022/05/13 12:16:22;;;;;;;0.10;0.10;;;15.60;99.90;;;;;;5085852;28;20923;-83
2022/05/13 12:19:13;;;;;;;0.10;0.10;;;15.90;99.90;;;;;;5067806;28;21209;-83
2022/05/13 12:21:56;;;;;;;0.10;0.10;;;15.60;99.90;;;;;;5084653;28;20453;-83
2022/05/13 12:24:24;;;;;;;0.10;0.10;;;15.20;99.90;;;;;;5087285;28;20926;-76
2022/05/13 12:26:53;;;;;;;0.10;0.10;;;15.10;99.90;;;;;;5087553;28;20443;-78
2022/05/13 12:29:20;;;;;;;0.10;0.10;;;15.00;99.90;;;;;;5087844;28;20427;-79
2022/05/13 12:31:48;;;;;;;0.10;0.10;;;14.90;99.90;;;;;;5085909;28;20758;-80
2022/05/13 12:37:40;;;;;;;0.10;0.10;;;14.50;99.90;;;;;;5087878;28;20489;-81
2022/05/13 12:40:23;;;;;;;0.10;0.10;;;14.30;99.90;;;;;;5055810;28;20487;-80
2022/05/13 12:42:52;;;;;;;0.10;0.10;;;14.40;99.90;;;;;;5087279;28;20441;-81
2022/05/13 12:45:18;;;;;;;0.10;0.10;;;14.40;99.90;;;;;;5066606;28;21401;-79
2022/05/13 12:48:08;;;;;;;0.10;0.10;;;14.30;99.90;;;;;;5080981;28;20427;-81
2022/05/13 12:50:45;;;;;;;0.10;0.10;;;14.60;99.90;;;;;;5068148;28;20525;-81
2022/05/13 12:53:30;;;;;;;0.10;0.10;;;14.70;99.90;;;;;;5073963;28;20509;-81
2022/05/13 12:55:56;;;;;;;0.10;0.10;;;14.80;99.90;;;;;;5093220;28;20446;-79
2022/05/13 12:58:24;;;;;;;0.10;0.10;;;14.60;99.90;;;;;;5059570;28;20437;-80
2022/05/13 13:00:52;;;;;;;0.10;0.10;;;14.60;99.90;;;;;;5076877;28;20482;-80
2022/05/13 13:03:19;;;;;;;0.10;0.10;;;14.70;99.90;;;;;;5078444;28;21234;-81
2022/05/13 13:05:59;;;;;;;0.10;0.10;;;14.80;99.90;;;;;;5076845;28;20476;-80
2022/05/13 13:08:34;;;;;;;0.10;0.10;;;14.90;99.90;;;;;;5085257;28;20457;-80
2022/05/13 13:11:15;;;;;;;0.10;0.10;;;15.10;99.90;;;;;;5082750;28;20438;-80
2022/05/13 13:14:03;;;;;;;0.10;0.10;;;15.40;99.90;;;;;;5082071;28;20494;-76
2022/05/13 13:16:36;;;;;;;0.10;0.10;;;15.50;99.90;;;;;;5084917;28;20702;-79
2022/05/13 13:19:12;;;;;;;0.10;0.10;;;15.40;99.90;;;;;;5082072;28;20454;-78
2022/05/13 13:21:40;;;;;;;0.10;0.10;;;15.50;99.90;;;;;;5076316;28;20434;-80
2022/05/13 13:24:13;;;;;;;0.10;0.10;;;15.60;99.90;;;;;;5060349;28;20855;-81
2022/05/13 13:26:40;;;;;;;0.10;0.10;;;15.70;99.90;;;;;;5086551;28;20472;-79
2022/05/13 13:29:06;;;;;;;0.10;0.10;;;16.10;99.90;;;;;;5082759;28;20478;-82
2022/05/13 13:31:39;;;;;;;0.10;0.10;;;16.70;99.90;;;;;;5084586;28;20475;-79
2022/05/13 13:34:04;;;;;;;0.10;0.10;;;16.80;99.90;;;;;;5088900;28;20181;-78
2022/05/13 13:36:32;;;;;;;0.10;0.10;;;17.10;99.90;;;;;;5084352;28;20508;-78
2022/05/13 13:39:00;;;;;;;0.10;0.10;;;17.40;99.90;;;;;;5087522;28;20184;-80
2022/05/13 13:41:28;;;;;;;0.10;0.10;;;16.90;99.90;;;;;;5089592;28;20894;-78